| time (UTC) | temp F | wind direction | speed MPH | gust MPH | rain 1hr in | rain 24hr in | rain mn in | humidity % | barometer mb |
| 20260906214822 | 89 | 226 | 9.0 | 13.0 | 0.00 | 0.00 | 0.00 | 12 | 1014.2 |
| 20260906214142 | 89 | 238 | 5.0 | 20.0 | 0.00 | 0.00 | 0.00 | 12 | 1014.2 |
| 20260906213502 | 89 | 239 | 7.0 | 20.0 | 0.00 | 0.00 | 0.00 | 12 | 1014.2 |
| 20260906212822 | 88 | 231 | 7.0 | 16.0 | 0.00 | 0.00 | 0.00 | 12 | 1014.2 |
| 20260906212142 | 90 | 215 | 7.0 | 20.0 | 0.00 | 0.00 | 0.00 | 12 | 1014.2 |
| 20260906211502 | 90 | 205 | 7.0 | 20.0 | 0.00 | 0.00 | 0.00 | 11 | 1014.2 |
| 20260906210822 | 89 | 251 | 6.0 | 16.0 | 0.00 | 0.00 | 0.00 | 13 | 1014.6 |
| 20260906210142 | 89 | 227 | 9.0 | 19.0 | 0.00 | 0.00 | 0.00 | 13 | 1014.6 |
| 20260906205502 | 89 | 224 | 10.0 | 17.0 | 0.00 | 0.00 | 0.00 | 13 | 1014.6 |
| 20260906204822 | 89 | 217 | 10.0 | 18.0 | 0.00 | 0.00 | 0.00 | 12 | 1015.0 |
| 20260906204142 | 89 | 203 | 11.0 | 21.0 | 0.00 | 0.00 | 0.00 | 12 | 1015.0 |
| 20260906203502 | 89 | 219 | 10.0 | 21.0 | 0.00 | 0.00 | 0.00 | 12 | 1015.0 |
| 20260906202822 | 89 | 208 | 9.0 | 18.0 | 0.00 | 0.00 | 0.00 | 12 | 1015.4 |
| 20260906202142 | 88 | 219 | 12.0 | 18.0 | 0.00 | 0.00 | 0.00 | 12 | 1015.4 |
| 20260906201502 | 88 | 212 | 11.0 | 23.0 | 0.00 | 0.00 | 0.00 | 12 | 1015.4 |
| 20260906200822 | 89 | 208 | 10.0 | 25.0 | 0.00 | 0.00 | 0.00 | 12 | 1015.4 |
| 20260906200142 | 90 | 211 | 9.0 | 24.0 | 0.00 | 0.00 | 0.00 | 13 | 1015.4 |
| 20260906195502 | 89 | 236 | 12.0 | 24.0 | 0.00 | 0.00 | 0.00 | 13 | 1015.4 |
| 20260906194822 | 89 | 197 | 8.0 | 20.0 | 0.00 | 0.00 | 0.00 | 13 | 1015.4 |
| 20260906193502 | 88 | 247 | 9.0 | 17.0 | 0.00 | 0.00 | 0.00 | 13 | 1015.4 |
| 20260906192822 | 88 | 230 | 9.0 | 20.0 | 0.00 | 0.00 | 0.00 | 13 | 1015.4 |
| 20260906192142 | 87 | 219 | 14.0 | 24.0 | 0.00 | 0.00 | 0.00 | 13 | 1015.8 |
| 20260906190822 | 87 | 222 | 13.0 | 20.0 | 0.00 | 0.00 | 0.00 | 13 | 1015.8 |
| 20260906190142 | 87 | 217 | 13.0 | 21.0 | 0.00 | 0.00 | 0.00 | 13 | 1016.2 |
| 20260906185502 | 88 | 213 | 12.0 | 21.0 | 0.00 | 0.00 | 0.00 | 13 | 1016.2 |
| 20260906184822 | 87 | 190 | 11.0 | 22.0 | 0.00 | 0.00 | 0.00 | 13 | 1016.2 |
| 20260906184142 | 86 | 224 | 15.0 | 21.0 | 0.00 | 0.00 | 0.00 | 14 | 1016.6 |
| 20260906183502 | 87 | 207 | 6.0 | 18.0 | 0.00 | 0.00 | 0.00 | 14 | 1016.6 |
| 20260906180822 | 86 | 217 | 11.0 | 17.0 | 0.00 | 0.00 | 0.00 | 14 | 1017.0 |
| 20260906174822 | 86 | 226 | 13.0 | 20.0 | 0.00 | 0.00 | 0.00 | 14 | 1017.4 |
| 20260906174142 | 86 | 232 | 10.0 | 20.0 | 0.00 | 0.00 | 0.00 | 14 | 1017.4 |
| 20260906173502 | 85 | 217 | 9.0 | 23.0 | 0.00 | 0.00 | 0.00 | 15 | 1017.4 |
| 20260906172822 | 85 | 229 | 10.0 | 18.0 | 0.00 | 0.00 | 0.00 | 14 | 1017.7 |
| 20260906171502 | 84 | 239 | 10.0 | 16.0 | 0.00 | 0.00 | 0.00 | 16 | 1017.7 |
| 20260906170822 | 84 | 230 | 10.0 | 15.0 | 0.00 | 0.00 | 0.00 | 17 | 1017.7 |
| 20260906170142 | 84 | 230 | 6.0 | 15.0 | 0.00 | 0.00 | 0.00 | 18 | 1017.7 |
| 20260906165502 | 83 | 225 | 6.0 | 13.0 | 0.00 | 0.00 | 0.00 | 19 | 1017.7 |
| 20260906164822 | 81 | 111 | 3.0 | 7.0 | 0.00 | 0.00 | 0.00 | 26 | 1017.7 |
| 20260906163502 | 80 | 216 | 2.0 | 5.0 | 0.00 | 0.00 | 0.00 | 27 | 1018.1 |
| 20260906162822 | 78 | 59 | 1.0 | 5.0 | 0.00 | 0.00 | 0.00 | 30 | 1018.1 |
| 20260906160822 | 74 | 212 | 1.0 | 3.0 | 0.00 | 0.00 | 0.00 | 35 | 1018.5 |
| 20260906155502 | 72 | 300 | 2.0 | 5.0 | 0.00 | 0.00 | 0.00 | 38 | 1018.5 |
| 20260906154822 | 71 | 285 | 3.0 | 5.0 | 0.00 | 0.00 | 0.00 | 39 | 1018.5 |
| 20260906153502 | 69 | 229 | 2.0 | 5.0 | 0.00 | 0.00 | 0.00 | 41 | 1018.5 |
| 20260906152821 | 68 | 250 | 2.0 | 5.0 | 0.00 | 0.00 | 0.00 | 42 | 1018.5 |
| 20260906152141 | 68 | 235 | 3.0 | 4.0 | 0.00 | 0.00 | 0.00 | 41 | 1018.5 |
| 20260906150821 | 65 | 228 | 1.0 | 4.0 | 0.00 | 0.00 | 0.00 | 44 | 1018.9 |
| 20260906150141 | 65 | 203 | 1.0 | 4.0 | 0.00 | 0.00 | 0.00 | 44 | 1018.9 |
| 20260906145501 | 65 | 222 | 2.0 | 4.0 | 0.00 | 0.00 | 0.00 | 44 | 1018.9 |
| 20260906144821 | 64 | 271 | 2.0 | 4.0 | 0.00 | 0.00 | 0.00 | 45 | 1018.9 |
| 20260906144141 | 65 | 230 | 2.0 | 4.0 | 0.00 | 0.00 | 0.00 | 45 | 1018.9 |
| 20260906143501 | 64 | 225 | 2.0 | 4.0 | 0.00 | 0.00 | 0.00 | 46 | 1018.9 |
| 20260906142821 | 63 | 279 | 1.0 | 4.0 | 0.00 | 0.00 | 0.00 | 47 | 1018.9 |
| 20260906142141 | 63 | 183 | 1.0 | 3.0 | 0.00 | 0.00 | 0.00 | 48 | 1018.9 |
| 20260906141501 | 62 | 215 | 1.0 | 4.0 | 0.00 | 0.00 | 0.00 | 51 | 1018.9 |
| 20260906140821 | 60 | 276 | 1.0 | 4.0 | 0.00 | 0.00 | 0.00 | 53 | 1018.9 |
| 20260906135501 | 60 | 227 | 2.0 | 3.0 | 0.00 | 0.00 | 0.00 | 54 | 1018.9 |
| 20260906134821 | 58 | 243 | 1.0 | 3.0 | 0.00 | 0.00 | 0.00 | 56 | 1018.9 |
| 20260906134141 | 58 | 298 | 2.0 | 3.0 | 0.00 | 0.00 | 0.00 | 53 | 1018.9 |
| 20260906133501 | 58 | 205 | 1.0 | 2.0 | 0.00 | 0.00 | 0.00 | 55 | 1018.9 |
| 20260906132141 | 56 | 301 | 0.0 | 2.0 | 0.00 | 0.00 | 0.00 | 57 | 1018.9 |
| 20260906130822 | 55 | 40 | 1.0 | 2.0 | 0.00 | 0.00 | 0.00 | 59 | 1018.9 |
| 20260906125502 | 55 | 334 | 1.0 | 3.0 | 0.00 | 0.00 | 0.00 | 60 | 1018.5 |
| 20260906124142 | 56 | 316 | 2.0 | 3.0 | 0.00 | 0.00 | 0.00 | 60 | 1018.5 |
| 20260906123502 | 56 | 103 | 1.0 | 3.0 | 0.00 | 0.00 | 0.00 | 61 | 1018.9 |
| 20260906122822 | 56 | 123 | 1.0 | 2.0 | 0.00 | 0.00 | 0.00 | 60 | 1018.5 |
| 20260906122142 | 58 | 252 | 1.0 | 2.0 | 0.00 | 0.00 | 0.00 | 56 | 1018.9 |
| 20260906121502 | 58 | 200 | 1.0 | 3.0 | 0.00 | 0.00 | 0.00 | 58 | 1018.5 |
| 20260906120822 | 57 | 192 | 1.0 | 3.0 | 0.00 | 0.00 | 0.00 | 59 | 1018.5 |
| 20260906120142 | 58 | 285 | 1.0 | 3.0 | 0.00 | 0.00 | 0.00 | 58 | 1018.5 |
| 20260906114822 | 58 | 239 | 2.0 | 4.0 | 0.00 | 0.00 | 0.00 | 55 | 1018.5 |
| 20260906114142 | 59 | 255 | 2.0 | 4.0 | 0.00 | 0.00 | 0.00 | 53 | 1018.9 |
| 20260906113502 | 60 | 202 | 1.0 | 3.0 | 0.00 | 0.00 | 0.00 | 51 | 1018.5 |
| 20260906112822 | 59 | 227 | 2.0 | 6.0 | 0.00 | 0.00 | 0.00 | 52 | 1018.5 |
| 20260906112142 | 60 | 234 | 4.0 | 5.0 | 0.00 | 0.00 | 0.00 | 50 | 1018.5 |
| 20260906111502 | 60 | 238 | 3.0 | 4.0 | 0.00 | 0.00 | 0.00 | 50 | 1018.5 |
| 20260906110142 | 60 | 230 | 2.0 | 4.0 | 0.00 | 0.00 | 0.00 | 54 | 1018.5 |
| 20260906105502 | 60 | 168 | 1.0 | 2.0 | 0.00 | 0.00 | 0.00 | 52 | 1018.5 |
| 20260906104822 | 58 | 266 | 1.0 | 3.0 | 0.00 | 0.00 | 0.00 | 54 | 1018.5 |
| 20260906104142 | 60 | 262 | 1.0 | 3.0 | 0.00 | 0.00 | 0.00 | 51 | 1018.5 |
| 20260906103502 | 60 | 294 | 1.0 | 3.0 | 0.00 | 0.00 | 0.00 | 50 | 1018.5 |
| 20260906102822 | 59 | 299 | 1.0 | 3.0 | 0.00 | 0.00 | 0.00 | 53 | 1018.5 |
| 20260906101502 | 60 | 147 | 1.0 | 3.0 | 0.00 | 0.00 | 0.00 | 51 | 1018.5 |
| 20260906100822 | 59 | 305 | 1.0 | 3.0 | 0.00 | 0.00 | 0.00 | 52 | 1018.5 |
| 20260906100142 | 60 | 279 | 1.0 | 3.0 | 0.00 | 0.00 | 0.00 | 50 | 1018.5 |
| 20260906095502 | 60 | 309 | 2.0 | 3.0 | 0.00 | 0.00 | 0.00 | 50 | 1018.1 |
| 20260906094822 | 60 | 311 | 1.0 | 3.0 | 0.00 | 0.00 | 0.00 | 50 | 1018.5 |
| 20260906093502 | 62 | 302 | 2.0 | 3.0 | 0.00 | 0.00 | 0.00 | 47 | 1018.1 |
| 20260906092822 | 61 | 328 | 2.0 | 3.0 | 0.00 | 0.00 | 0.00 | 48 | 1018.1 |
| 20260906091502 | 63 | 317 | 2.0 | 3.0 | 0.00 | 0.00 | 0.00 | 46 | 1018.1 |
| 20260906090822 | 63 | 258 | 2.0 | 4.0 | 0.00 | 0.00 | 0.00 | 47 | 1018.1 |
| 20260906090142 | 64 | 292 | 2.0 | 3.0 | 0.00 | 0.00 | 0.00 | 44 | 1018.1 |
| 20260906085502 | 65 | 261 | 2.0 | 5.0 | 0.00 | 0.00 | 0.00 | 42 | 1018.1 |
| 20260906084142 | 66 | 260 | 3.0 | 5.0 | 0.00 | 0.00 | 0.00 | 40 | 1018.1 |
| 20260906083502 | 66 | 257 | 3.0 | 9.0 | 0.00 | 0.00 | 0.00 | 39 | 1018.1 |
| 20260906082822 | 65 | 243 | 5.0 | 9.0 | 0.00 | 0.00 | 0.00 | 40 | 1018.1 |
| 20260906082142 | 66 | 256 | 5.0 | 8.0 | 0.00 | 0.00 | 0.00 | 40 | 1018.1 |
| 20260906081502 | 66 | 259 | 3.0 | 8.0 | 0.00 | 0.00 | 0.00 | 39 | 1018.1 |
| 20260906080822 | 65 | 252 | 4.0 | 8.0 | 0.00 | 0.00 | 0.00 | 40 | 1018.1 |
| 20260906075502 | 66 | 237 | 5.0 | 10.0 | 0.00 | 0.00 | 0.00 | 39 | 1018.1 |
| 20260906074822 | 66 | 250 | 4.0 | 10.0 | 0.00 | 0.00 | 0.00 | 39 | 1018.1 |
| 20260906072822 | 66 | 236 | 6.0 | 11.0 | 0.00 | 0.00 | 0.00 | 38 | 1018.1 |
| 20260906072142 | 66 | 230 | 8.0 | 11.0 | 0.00 | 0.00 | 0.00 | 38 | 1018.1 |
| 20260906071502 | 66 | 226 | 8.0 | 12.0 | 0.00 | 0.00 | 0.00 | 38 | 1017.7 |
| 20260906070822 | 66 | 228 | 8.0 | 12.0 | 0.00 | 0.00 | 0.00 | 38 | 1017.7 |
| 20260906070142 | 66 | 233 | 7.0 | 10.0 | 0.00 | 0.00 | 0.00 | 38 | 1017.7 |
| 20260906065502 | 67 | 235 | 6.0 | 11.0 | 0.00 | 0.00 | 0.00 | 37 | 1017.7 |
| 20260906064822 | 67 | 243 | 5.0 | 11.0 | 0.00 | 0.00 | 0.00 | 37 | 1017.7 |
| 20260906064142 | 67 | 227 | 7.0 | 11.0 | 0.00 | 0.00 | 0.00 | 37 | 1017.7 |
| 20260906063502 | 69 | 258 | 2.0 | 6.0 | 0.00 | 0.00 | 0.00 | 34 | 1017.7 |
| 20260906062822 | 68 | 206 | 2.0 | 10.0 | 0.00 | 0.00 | 0.00 | 36 | 1018.1 |
| 20260906062142 | 68 | 217 | 6.0 | 11.0 | 0.00 | 0.00 | 0.00 | 35 | 1017.7 |
| 20260906061502 | 68 | 250 | 5.0 | 10.0 | 0.00 | 0.00 | 0.00 | 34 | 1017.7 |
| 20260906060822 | 68 | 239 | 5.0 | 10.0 | 0.00 | 0.00 | 0.00 | 34 | 1017.7 |
| 20260906060142 | 68 | 231 | 6.0 | 9.0 | 0.00 | 0.00 | 0.00 | 34 | 1017.7 |
| 20260906055502 | 69 | 258 | 5.0 | 8.0 | 0.00 | 0.00 | 0.00 | 33 | 1017.7 |
| 20260906054822 | 70 | 239 | 4.0 | 9.0 | 0.00 | 0.00 | 0.00 | 33 | 1017.7 |
| 20260906054142 | 70 | 254 | 4.0 | 8.0 | 0.00 | 0.00 | 0.00 | 33 | 1017.7 |
| 20260906053502 | 70 | 226 | 6.0 | 9.0 | 0.00 | 0.00 | 0.00 | 32 | 1017.7 |
| 20260906052822 | 69 | 228 | 5.0 | 9.0 | 0.00 | 0.00 | 0.00 | 33 | 1017.7 |
| 20260906050822 | 71 | 227 | 2.0 | 4.0 | 0.00 | 0.00 | 0.00 | 30 | 1017.7 |
| 20260906050142 | 70 | 238 | 3.0 | 5.0 | 0.00 | 0.00 | 0.00 | 31 | 1017.7 |
| 20260906044822 | 70 | 252 | 2.0 | 4.0 | 0.00 | 0.00 | 0.00 | 31 | 1017.7 |
| 20260906044142 | 71 | 298 | 2.0 | 8.0 | 0.00 | 0.00 | 0.00 | 30 | 1017.4 |
| 20260906043502 | 71 | 317 | 5.0 | 11.0 | 0.00 | 0.00 | 0.00 | 32 | 1017.7 |
| 20260906042822 | 73 | 297 | 7.0 | 11.0 | 0.00 | 0.00 | 0.00 | 37 | 1017.4 |
| 20260906042142 | 74 | 226 | 3.0 | 5.0 | 0.00 | 0.00 | 0.00 | 27 | 1017.4 |
| 20260906041502 | 74 | 227 | 3.0 | 6.0 | 0.00 | 0.00 | 0.00 | 28 | 1017.4 |
| 20260906040822 | 74 | 231 | 2.0 | 4.0 | 0.00 | 0.00 | 0.00 | 28 | 1017.4 |
| 20260906040142 | 75 | 238 | 2.0 | 3.0 | 0.00 | 0.00 | 0.00 | 28 | 1017.4 |
| 20260906035502 | 76 | 207 | 1.0 | 4.0 | 0.00 | 0.00 | 0.00 | 28 | 1017.4 |
| 20260906034142 | 74 | 156 | 1.0 | 2.0 | 0.00 | 0.00 | 0.00 | 32 | 1017.4 |
| 20260906033502 | 76 | 329 | 1.0 | 2.0 | 0.00 | 0.00 | 0.00 | 32 | 1017.4 |
| 20260906032822 | 77 | 103 | 1.0 | 3.0 | 0.00 | 0.00 | 0.00 | 29 | 1017.7 |
| 20260906032142 | 79 | 220 | 1.0 | 3.0 | 0.00 | 0.00 | 0.00 | 27 | 1017.4 |
| 20260906031502 | 80 | 219 | 1.0 | 3.0 | 0.00 | 0.00 | 0.00 | 27 | 1017.4 |
| 20260906030142 | 81 | 251 | 1.0 | 2.0 | 0.00 | 0.00 | 0.00 | 24 | 1017.4 |
| 20260906025502 | 82 | 163 | 1.0 | 4.0 | 0.00 | 0.00 | 0.00 | 22 | 1017.4 |
| 20260906024822 | 82 | 220 | 2.0 | 4.0 | 0.00 | 0.00 | 0.00 | 22 | 1017.4 |
| 20260906023502 | 83 | 163 | 1.0 | 2.0 | 0.00 | 0.00 | 0.00 | 19 | 1017.4 |
| 20260906022142 | 86 | 197 | 1.0 | 3.0 | 0.00 | 0.00 | 0.00 | 18 | 1017.0 |
| 20260906021502 | 86 | 234 | 2.0 | 4.0 | 0.00 | 0.00 | 0.00 | 17 | 1017.0 |
| 20260906020142 | 86 | 156 | 2.0 | 9.0 | 0.00 | 0.00 | 0.00 | 17 | 1017.0 |
| 20260906014822 | 86 | 130 | 3.0 | 8.0 | 0.00 | 0.00 | 0.00 | 19 | 1017.0 |
| 20260906014142 | 86 | 164 | 5.0 | 8.0 | 0.00 | 0.00 | 0.00 | 19 | 1017.0 |
| 20260906013502 | 86 | 175 | 4.0 | 9.0 | 0.00 | 0.00 | 0.00 | 19 | 1017.0 |
| 20260906012822 | 87 | 205 | 1.0 | 9.0 | 0.00 | 0.00 | 0.00 | 19 | 1017.0 |
| 20260906012142 | 87 | 170 | 4.0 | 11.0 | 0.00 | 0.00 | 0.00 | 18 | 1016.6 |
| 20260906011502 | 87 | 187 | 6.0 | 11.0 | 0.00 | 0.00 | 0.00 | 18 | 1016.6 |
| 20260906010142 | 88 | 198 | 3.0 | 11.0 | 0.00 | 0.00 | 0.00 | 17 | 1016.6 |
| 20260906005502 | 87 | 191 | 6.0 | 12.0 | 0.00 | 0.00 | 0.00 | 17 | 1016.6 |
| 20260906004822 | 88 | 218 | 5.0 | 10.0 | 0.00 | 0.00 | 0.00 | 17 | 1016.6 |
| 20260906004142 | 88 | 217 | 7.0 | 12.0 | 0.00 | 0.00 | 0.00 | 16 | 1016.6 |
| 20260906003502 | 89 | 221 | 7.0 | 12.0 | 0.00 | 0.00 | 0.00 | 16 | 1016.2 |
| 20260906002822 | 90 | 215 | 4.0 | 10.0 | 0.00 | 0.00 | 0.00 | 15 | 1016.2 |
| 20260906002142 | 90 | 238 | 3.0 | 15.0 | 0.00 | 0.00 | 0.00 | 15 | 1016.2 |
| 20260906001502 | 89 | 228 | 4.0 | 11.0 | 0.00 | 0.00 | 0.00 | 15 | 1016.2 |
| 20260906000822 | 89 | 228 | 8.0 | 13.0 | 0.00 | 0.00 | 0.00 | 16 | 1016.2 |
| 20260906000142 | 89 | 205 | 6.0 | 16.0 | 0.00 | 0.00 | 0.00 | 16 | 1016.2 |
| 20260905235502 | 90 | 222 | 7.0 | 18.0 | 0.00 | 0.00 | 0.00 | 15 | 1016.2 |
| 20260905234822 | 90 | 214 | 6.0 | 18.0 | 0.00 | 0.00 | 0.00 | 16 | 1016.2 |
| 20260905234142 | 91 | 204 | 4.0 | 8.0 | 0.00 | 0.00 | 0.00 | 16 | 1016.2 |
| 20260905233502 | 90 | 211 | 3.0 | 14.0 | 0.00 | 0.00 | 0.00 | 16 | 1016.2 |
| 20260905232822 | 89 | 221 | 9.0 | 13.0 | 0.00 | 0.00 | 0.00 | 16 | 1016.2 |
| 20260905232142 | 90 | 251 | 5.0 | 14.0 | 0.00 | 0.00 | 0.00 | 16 | 1016.2 |
| 20260905231502 | 89 | 247 | 6.0 | 17.0 | 0.00 | 0.00 | 0.00 | 16 | 1016.2 |
| 20260905230142 | 90 | 255 | 8.0 | 14.0 | 0.00 | 0.00 | 0.00 | 16 | 1016.2 |
| 20260905225502 | 90 | 238 | 3.0 | 17.0 | 0.00 | 0.00 | 0.00 | 17 | 1016.2 |
| 20260905224822 | 89 | 224 | 9.0 | 17.0 | 0.00 | 0.00 | 0.00 | 16 | 1016.2 |
| 20260905224142 | 89 | 210 | 6.0 | 14.0 | 0.00 | 0.00 | 0.00 | 16 | 1016.2 |
| 20260905223502 | 89 | 226 | 10.0 | 14.0 | 0.00 | 0.00 | 0.00 | 16 | 1016.2 |
| 20260905222822 | 89 | 217 | 7.0 | 15.0 | 0.00 | 0.00 | 0.00 | 16 | 1016.6 |
| 20260905221502 | 89 | 214 | 7.0 | 13.0 | 0.00 | 0.00 | 0.00 | 16 | 1016.6 |
| 20260905220822 | 90 | 224 | 5.0 | 11.0 | 0.00 | 0.00 | 0.00 | 15 | 1016.6 |
| 20260905220142 | 88 | 220 | 4.0 | 18.0 | 0.00 | 0.00 | 0.00 | 17 | 1016.6 |
| 20260905215502 | 88 | 221 | 13.0 | 18.0 | 0.00 | 0.00 | 0.00 | 16 | 1016.6 |